Time;durP1;ratioP1;P1;durP2;ratioP2;P2;SDS_P1;SDS_P2;PMS_P1;PMS_P2;Temp;Humidity;BMP_temperature;BMP_pressure;BME280_temperature;BME280_humidity;BME280_pressure;Samples;Min_cycle;Max_cycle;Signal;HPM_P1;HPM_P2
2021/03/22 00:00:00;;;;;;;11.00;3.13;;;5.60;99.90;;;;;;5096954;28;20473;-81
2021/03/22 00:02:26;;;;;;;10.63;3.77;;;5.60;99.90;;;;;;5063790;28;20505;-81
2021/03/22 00:04:52;;;;;;;13.77;3.73;;;5.50;99.90;;;;;;5080730;28;20400;-81
2021/03/22 00:07:18;;;;;;;37.60;5.47;;;5.50;99.90;;;;;;5080329;28;20545;-80
2021/03/22 00:09:43;;;;;;;14.10;5.13;;;5.50;99.90;;;;;;5076973;28;20156;-81
2021/03/22 00:12:10;;;;;;;11.23;4.10;;;5.40;99.90;;;;;;5078656;28;20187;-81
2021/03/22 00:14:36;;;;;;;11.17;3.60;;;5.40;99.90;;;;;;5060565;28;20160;-81
2021/03/22 00:17:04;;;;;;;17.87;3.00;;;5.40;99.90;;;;;;5060922;28;20378;-81
2021/03/22 00:19:30;;;;;;;13.77;3.93;;;5.40;99.90;;;;;;5045185;28;20505;-80
2021/03/22 00:21:56;;;;;;;13.17;4.20;;;5.30;99.90;;;;;;5078692;28;20445;-81
2021/03/22 00:24:22;;;;;;;21.33;3.80;;;5.30;99.90;;;;;;5078765;28;20949;-81
2021/03/22 00:26:47;;;;;;;15.10;4.43;;;5.30;99.90;;;;;;5081093;28;20580;-81
2021/03/22 00:29:13;;;;;;;12.27;3.07;;;5.30;99.90;;;;;;5080796;28;20187;-81
2021/03/22 00:31:39;;;;;;;3.63;3.10;;;5.30;99.90;;;;;;5081255;28;20580;-81
2021/03/22 00:34:05;;;;;;;3.20;2.10;;;5.20;99.90;;;;;;5081619;28;20594;-80
2021/03/22 00:36:31;;;;;;;12.33;4.63;;;5.20;99.90;;;;;;5065245;28;20172;-80
2021/03/22 00:38:56;;;;;;;5.40;2.63;;;5.30;99.90;;;;;;5083420;28;20369;-80
2021/03/22 00:41:23;;;;;;;14.00;4.17;;;5.20;99.90;;;;;;5090851;28;20542;-80
2021/03/22 00:43:52;;;;;;;7.37;3.53;;;5.20;99.90;;;;;;5089462;28;20262;-81
2021/03/22 00:46:18;;;;;;;10.20;2.87;;;5.20;99.90;;;;;;5064499;28;20404;-81
2021/03/22 00:48:44;;;;;;;14.57;3.27;;;5.10;99.90;;;;;;5081812;28;20368;-80
2021/03/22 00:51:09;;;;;;;10.07;3.40;;;5.10;99.90;;;;;;5082487;28;20860;-81
2021/03/22 00:53:35;;;;;;;5.70;2.43;;;5.10;99.90;;;;;;5080378;28;20186;-81
2021/03/22 00:56:02;;;;;;;18.23;3.90;;;5.10;99.90;;;;;;5082488;28;20174;-80
2021/03/22 00:58:28;;;;;;;14.43;2.87;;;5.10;99.90;;;;;;5082096;28;20368;-80
2021/03/22 01:00:57;;;;;;;11.50;3.30;;;5.10;99.90;;;;;;5082084;28;20718;-81
2021/03/22 01:03:27;;;;;;;18.00;4.47;;;5.00;99.90;;;;;;5081759;28;20507;-81
2021/03/22 01:05:54;;;;;;;7.23;3.93;;;5.00;99.90;;;;;;5081679;28;20430;-81
2021/03/22 01:08:23;;;;;;;20.67;3.87;;;5.00;99.90;;;;;;5081656;28;20506;-81
2021/03/22 01:10:56;;;;;;;7.53;2.70;;;4.90;99.90;;;;;;5081216;28;20409;-80
2021/03/22 01:13:27;;;;;;;9.70;2.83;;;4.90;99.90;;;;;;5081703;28;20402;-81
2021/03/22 01:15:54;;;;;;;4.07;2.47;;;4.90;99.90;;;;;;5081659;28;20384;-81
2021/03/22 01:18:24;;;;;;;9.73;5.30;;;4.90;99.90;;;;;;5081977;28;20376;-81
2021/03/22 01:21:00;;;;;;;14.10;3.97;;;4.90;99.90;;;;;;5080289;28;20406;-81
2021/03/22 01:23:26;;;;;;;3.90;2.47;;;4.90;99.90;;;;;;5081801;28;20408;-81
2021/03/22 01:25:52;;;;;;;5.10;2.50;;;4.90;99.90;;;;;;5081510;28;20452;-80
2021/03/22 01:28:19;;;;;;;13.17;4.27;;;4.90;99.90;;;;;;5081308;28;20160;-80
2021/03/22 01:30:50;;;;;;;16.03;3.23;;;4.80;99.90;;;;;;5081081;28;20377;-81
2021/03/22 01:33:19;;;;;;;3.33;3.13;;;4.80;99.90;;;;;;5080983;28;20448;-80
2021/03/22 01:35:45;;;;;;;9.53;3.13;;;4.80;99.90;;;;;;5081005;28;20373;-81
2021/03/22 01:38:11;;;;;;;10.97;3.93;;;4.80;99.90;;;;;;5081119;28;20406;-80
2021/03/22 01:41:02;;;;;;;22.47;4.87;;;4.80;99.90;;;;;;5080746;28;20384;-81
2021/03/22 01:43:55;;;;;;;9.73;3.03;;;4.80;99.90;;;;;;5081165;28;20528;-80
2021/03/22 01:46:23;;;;;;;4.30;2.23;;;4.80;99.90;;;;;;5082096;28;20394;-81
2021/03/22 01:48:50;;;;;;;7.93;3.47;;;4.80;99.90;;;;;;5081844;28;20402;-81
2021/03/22 01:51:16;;;;;;;14.27;3.37;;;4.80;99.90;;;;;;5080649;28;20369;-81
2021/03/22 01:53:43;;;;;;;22.30;5.03;;;4.90;99.90;;;;;;5096732;28;20388;-80
2021/03/22 01:56:13;;;;;;;7.63;3.00;;;4.90;99.90;;;;;;5090089;28;20404;-78
2021/03/22 01:58:40;;;;;;;7.40;2.50;;;4.80;99.90;;;;;;5092472;28;20364;-79
2021/03/22 02:01:06;;;;;;;5.07;2.10;;;4.90;99.90;;;;;;5090592;28;20390;-79
2021/03/22 02:03:32;;;;;;;6.63;3.00;;;4.90;99.90;;;;;;5092913;28;20442;-79
2021/03/22 02:05:58;;;;;;;8.77;3.00;;;4.90;99.90;;;;;;5092255;28;20819;-78
2021/03/22 02:08:32;;;;;;;11.17;3.67;;;4.90;99.90;;;;;;5093464;28;20404;-78
2021/03/22 02:10:59;;;;;;;7.27;2.60;;;4.90;99.90;;;;;;5092365;28;20459;-79
2021/03/22 02:13:29;;;;;;;4.80;3.10;;;4.90;99.90;;;;;;5088389;28;20379;-81
2021/03/22 02:16:11;;;;;;;9.40;3.37;;;4.90;99.90;;;;;;5081179;28;20380;-81
2021/03/22 02:18:58;;;;;;;10.00;3.40;;;4.90;99.90;;;;;;5080633;28;20463;-81
2021/03/22 02:22:02;;;;;;;11.20;3.47;;;4.90;99.90;;;;;;5080584;28;20397;-81
2021/03/22 02:24:51;;;;;;;4.37;2.90;;;4.90;99.90;;;;;;5080883;28;20461;-81
2021/03/22 02:27:47;;;;;;;7.53;3.37;;;4.90;99.90;;;;;;5080869;28;20494;-80
2021/03/22 02:30:40;;;;;;;8.07;2.37;;;5.00;99.90;;;;;;5079074;28;20380;-81
2021/03/22 02:33:37;;;;;;;5.40;3.47;;;5.00;99.90;;;;;;5083175;28;20398;-80
2021/03/22 02:36:10;;;;;;;8.33;3.47;;;5.00;99.90;;;;;;5087759;28;20376;-80
2021/03/22 02:38:43;;;;;;;6.77;2.97;;;5.00;99.90;;;;;;5087745;28;20421;-80
2021/03/22 02:41:16;;;;;;;7.67;3.00;;;5.00;99.90;;;;;;5086566;28;20432;-80
2021/03/22 02:43:42;;;;;;;14.43;4.43;;;5.00;99.90;;;;;;5081904;28;20452;-81
2021/03/22 02:46:09;;;;;;;22.33;3.77;;;5.10;99.90;;;;;;5087707;28;20376;-79
2021/03/22 02:48:38;;;;;;;12.70;4.13;;;5.10;99.90;;;;;;5092340;28;20213;-79
2021/03/22 02:51:37;;;;;;;10.33;4.20;;;5.10;99.90;;;;;;5092624;28;20403;-79
2021/03/22 02:54:18;;;;;;;9.17;3.30;;;5.10;99.90;;;;;;5093232;28;20398;-79
2021/03/22 02:56:54;;;;;;;8.70;3.03;;;5.00;99.90;;;;;;5093044;28;20365;-78
2021/03/22 02:59:25;;;;;;;6.53;2.70;;;5.00;99.90;;;;;;5091359;28;20372;-79
2021/03/22 03:01:57;;;;;;;8.47;2.40;;;4.90;99.90;;;;;;5087805;28;20441;-80
2021/03/22 03:04:22;;;;;;;8.40;3.40;;;4.90;99.90;;;;;;5091300;28;20390;-78
2021/03/22 03:06:58;;;;;;;8.97;3.53;;;4.90;99.90;;;;;;5089271;28;20418;-79
2021/03/22 03:09:30;;;;;;;14.30;3.03;;;4.90;99.90;;;;;;5091804;28;20194;-78
2021/03/22 03:12:07;;;;;;;12.77;4.43;;;4.80;99.90;;;;;;5085405;28;20419;-81
2021/03/22 03:14:33;;;;;;;9.97;3.57;;;4.80;99.90;;;;;;5083119;28;20382;-81
2021/03/22 03:16:58;;;;;;;7.17;3.50;;;4.70;99.90;;;;;;5086580;28;20404;-80
2021/03/22 03:19:24;;;;;;;10.77;2.40;;;4.70;99.90;;;;;;5087564;28;20163;-80
2021/03/22 03:21:50;;;;;;;11.80;2.70;;;4.70;99.90;;;;;;5087700;28;20183;-79
2021/03/22 03:24:16;;;;;;;5.30;2.80;;;4.80;99.90;;;;;;5079876;28;20165;-81
2021/03/22 03:26:42;;;;;;;8.10;3.57;;;4.80;99.90;;;;;;5079632;28;20155;-80
2021/03/22 03:29:08;;;;;;;4.80;2.47;;;4.80;99.90;;;;;;5079942;28;20398;-80
2021/03/22 03:31:35;;;;;;;11.87;3.20;;;4.70;99.90;;;;;;5090770;28;20202;-79
2021/03/22 03:34:01;;;;;;;10.20;2.50;;;4.70;99.90;;;;;;5087000;28;20164;-80
2021/03/22 03:36:28;;;;;;;6.83;3.30;;;4.70;99.90;;;;;;5079326;28;20373;-81
2021/03/22 03:38:56;;;;;;;6.50;2.63;;;4.70;99.90;;;;;;5078589;28;20364;-79
2021/03/22 03:41:22;;;;;;;7.93;2.60;;;4.80;99.90;;;;;;5078565;28;20452;-81
2021/03/22 03:43:48;;;;;;;9.80;3.17;;;4.80;99.90;;;;;;5079332;28;20945;-80
2021/03/22 03:46:14;;;;;;;6.50;3.57;;;4.80;99.90;;;;;;5079044;28;20270;-81
2021/03/22 03:48:40;;;;;;;13.87;3.23;;;4.80;99.90;;;;;;5078907;28;20244;-81
2021/03/22 03:51:06;;;;;;;6.80;5.00;;;4.70;99.90;;;;;;5080631;28;20170;-80
2021/03/22 03:53:32;;;;;;;13.90;4.03;;;4.70;99.90;;;;;;5080789;28;20213;-80
2021/03/22 03:55:59;;;;;;;5.83;3.10;;;4.70;99.90;;;;;;5080193;28;20406;-81
2021/03/22 03:58:25;;;;;;;6.50;2.73;;;4.70;99.90;;;;;;5081657;28;20198;-80
2021/03/22 04:00:51;;;;;;;11.07;2.60;;;4.60;99.90;;;;;;5085978;28;20431;-78
2021/03/22 04:03:31;;;;;;;13.23;3.70;;;4.60;99.90;;;;;;5096453;28;20415;-78
2021/03/22 04:06:12;;;;;;;5.47;3.00;;;4.60;99.90;;;;;;5095887;28;20401;-79
2021/03/22 04:08:43;;;;;;;6.53;2.90;;;4.50;99.90;;;;;;5096984;28;20438;-78
2021/03/22 04:11:11;;;;;;;12.10;4.00;;;4.40;99.90;;;;;;5096805;28;20384;-79
2021/03/22 04:13:38;;;;;;;10.00;3.37;;;4.40;99.90;;;;;;5094100;28;20372;-81
2021/03/22 04:16:06;;;;;;;16.73;4.70;;;4.40;99.90;;;;;;5084522;28;20380;-81
2021/03/22 04:18:33;;;;;;;8.80;3.10;;;4.40;99.90;;;;;;5084588;28;20486;-81
2021/03/22 04:20:59;;;;;;;2.67;2.47;;;4.40;99.90;;;;;;5082109;28;20376;-80
2021/03/22 04:23:25;;;;;;;8.10;3.60;;;4.40;99.90;;;;;;5083656;28;20465;-81
2021/03/22 04:25:50;;;;;;;6.30;3.40;;;4.40;99.90;;;;;;5083803;28;20510;-80
2021/03/22 04:28:16;;;;;;;17.63;3.20;;;4.40;99.90;;;;;;5084028;28;20525;-80
2021/03/22 04:30:43;;;;;;;4.60;2.73;;;4.30;99.90;;;;;;5084035;28;20480;-79
2021/03/22 04:33:09;;;;;;;10.07;3.80;;;4.30;99.90;;;;;;5083536;28;20258;-80
2021/03/22 04:35:35;;;;;;;13.90;4.03;;;4.30;99.90;;;;;;5082998;28;20458;-79
2021/03/22 04:38:01;;;;;;;12.77;4.07;;;4.20;99.90;;;;;;5082455;28;20479;-80
2021/03/22 04:40:28;;;;;;;6.10;3.40;;;4.20;99.90;;;;;;5082907;28;20242;-80
2021/03/22 04:42:54;;;;;;;13.17;3.70;;;4.10;99.90;;;;;;5082290;28;20234;-82
2021/03/22 04:45:23;;;;;;;8.73;3.53;;;4.10;99.90;;;;;;5082411;28;20844;-80
2021/03/22 04:47:50;;;;;;;4.60;2.80;;;4.10;99.90;;;;;;5083174;28;20837;-79
2021/03/22 04:50:19;;;;;;;8.10;2.43;;;4.10;99.90;;;;;;5083384;28;20365;-81
2021/03/22 04:52:45;;;;;;;11.73;4.23;;;4.10;99.90;;;;;;5081534;28;20364;-81
2021/03/22 04:55:12;;;;;;;8.60;3.50;;;4.10;99.90;;;;;;5082624;28;20386;-81
2021/03/22 04:57:38;;;;;;;10.17;2.83;;;4.10;99.90;;;;;;5082883;28;20485;-80
2021/03/22 05:00:08;;;;;;;7.20;3.20;;;4.00;99.90;;;;;;5082467;28;20422;-80
2021/03/22 05:02:34;;;;;;;10.43;4.63;;;4.10;99.90;;;;;;5082175;28;20411;-80
2021/03/22 05:05:00;;;;;;;5.77;3.47;;;4.10;99.90;;;;;;5082410;28;20407;-80
2021/03/22 05:07:26;;;;;;;13.93;3.77;;;4.10;99.90;;;;;;5081693;28;20237;-80
2021/03/22 05:09:52;;;;;;;10.47;3.80;;;4.10;99.90;;;;;;5063325;28;20176;-80
2021/03/22 05:12:18;;;;;;;3.73;2.33;;;4.10;99.90;;;;;;5061218;28;20378;-80
2021/03/22 05:14:43;;;;;;;12.70;5.57;;;4.10;99.90;;;;;;5061734;28;20392;-80
2021/03/22 05:17:09;;;;;;;5.63;3.33;;;4.10;99.90;;;;;;5062262;28;20662;-80
2021/03/22 05:19:36;;;;;;;7.50;3.33;;;4.10;99.90;;;;;;5061402;28;20171;-80
2021/03/22 05:22:02;;;;;;;8.97;2.67;;;4.10;99.90;;;;;;5062048;28;20191;-80
2021/03/22 05:24:28;;;;;;;6.17;3.53;;;4.00;99.90;;;;;;5062257;28;20763;-80
2021/03/22 05:26:54;;;;;;;21.03;4.00;;;4.10;99.90;;;;;;5062053;28;20366;-80
2021/03/22 05:29:22;;;;;;;9.17;3.40;;;4.10;99.90;;;;;;5062739;28;20444;-80
2021/03/22 05:31:48;;;;;;;9.77;4.30;;;4.10;99.90;;;;;;5061916;28;20393;-79
2021/03/22 05:34:14;;;;;;;3.73;2.70;;;4.20;99.90;;;;;;5061950;28;20373;-80
2021/03/22 05:36:40;;;;;;;12.10;3.57;;;4.20;99.90;;;;;;5061962;28;20552;-80
2021/03/22 05:39:06;;;;;;;9.70;4.03;;;4.20;99.90;;;;;;5061653;28;20370;-80
2021/03/22 05:41:46;;;;;;;8.73;3.60;;;4.30;99.90;;;;;;5066291;28;20568;-80
2021/03/22 05:44:43;;;;;;;6.77;3.20;;;4.40;99.90;;;;;;5071138;28;20489;-80
2021/03/22 05:47:23;;;;;;;6.70;3.50;;;4.40;99.90;;;;;;5079320;28;20392;-80
2021/03/22 05:50:05;;;;;;;4.17;2.50;;;4.50;99.90;;;;;;5044601;28;20484;-80
2021/03/22 05:53:02;;;;;;;13.20;3.87;;;4.60;99.90;;;;;;5059911;28;20415;-81
2021/03/22 05:55:37;;;;;;;8.83;3.50;;;4.70;99.90;;;;;;5059475;28;20441;-80
2021/03/22 05:58:35;;;;;;;3.63;2.60;;;4.80;99.90;;;;;;5060839;28;20373;-80
2021/03/22 06:01:15;;;;;;;13.33;3.73;;;4.80;99.90;;;;;;5063785;28;20425;-80
2021/03/22 06:03:51;;;;;;;17.97;3.67;;;4.90;99.90;;;;;;5063152;28;20409;-80
2021/03/22 06:06:38;;;;;;;13.50;3.10;;;4.90;99.90;;;;;;5067451;28;20537;-79
2021/03/22 06:09:32;;;;;;;7.40;2.93;;;5.00;99.90;;;;;;5070833;28;20445;-80
2021/03/22 06:12:02;;;;;;;13.03;3.40;;;5.00;99.90;;;;;;5058142;28;20437;-80
2021/03/22 06:14:46;;;;;;;9.77;4.47;;;5.10;99.90;;;;;;5074502;28;20464;-80
2021/03/22 06:17:25;;;;;;;7.33;4.40;;;5.20;99.90;;;;;;5060397;28;20812;-80
2021/03/22 06:19:55;;;;;;;6.50;3.20;;;5.20;99.90;;;;;;5079628;28;20432;-80
2021/03/22 06:22:24;;;;;;;12.57;4.97;;;5.20;99.90;;;;;;5072929;28;20843;-79
2021/03/22 06:24:51;;;;;;;5.70;2.43;;;5.20;99.90;;;;;;5072976;28;20443;-80
2021/03/22 06:27:17;;;;;;;9.53;2.83;;;5.20;99.90;;;;;;5063384;28;20381;-80
2021/03/22 06:29:44;;;;;;;9.33;3.30;;;5.20;99.90;;;;;;5071354;28;20406;-78
2021/03/22 06:32:21;;;;;;;5.10;3.10;;;5.20;99.90;;;;;;5087510;28;20417;-78
2021/03/22 06:34:56;;;;;;;7.30;3.47;;;5.30;99.90;;;;;;5082941;28;20418;-77
2021/03/22 06:37:27;;;;;;;8.80;4.03;;;5.30;99.90;;;;;;5077649;28;20482;-79
2021/03/22 06:40:14;;;;;;;10.47;4.27;;;5.30;99.90;;;;;;5072870;28;20421;-80
2021/03/22 06:42:42;;;;;;;4.23;2.73;;;5.30;99.90;;;;;;5070707;28;20473;-80
2021/03/22 06:45:27;;;;;;;10.73;3.20;;;5.30;99.90;;;;;;5073714;28;20422;-80
2021/03/22 06:48:14;;;;;;;10.53;3.53;;;5.40;99.90;;;;;;5061036;28;20472;-79
2021/03/22 06:50:40;;;;;;;5.20;2.93;;;5.40;99.90;;;;;;5065949;28;20872;-81
2021/03/22 06:53:07;;;;;;;13.90;3.37;;;5.40;99.90;;;;;;5068254;28;20433;-81
2021/03/22 06:55:36;;;;;;;4.80;2.93;;;5.40;99.90;;;;;;5067966;28;20213;-81
2021/03/22 06:58:02;;;;;;;11.40;4.37;;;5.40;99.90;;;;;;5064751;28;20430;-81
2021/03/22 07:00:34;;;;;;;9.77;3.40;;;5.40;99.90;;;;;;5074618;28;20461;-81
2021/03/22 07:03:19;;;;;;;8.00;4.17;;;5.40;99.90;;;;;;5076275;28;20814;-82
2021/03/22 07:05:45;;;;;;;25.00;7.73;;;5.40;99.90;;;;;;5072642;28;20425;-81
2021/03/22 07:08:16;;;;;;;7.53;4.60;;;5.40;99.90;;;;;;5072651;28;20533;-79
2021/03/22 07:11:03;;;;;;;16.93;3.70;;;5.40;99.90;;;;;;5073824;28;20263;-78
2021/03/22 07:13:31;;;;;;;5.30;4.07;;;5.50;99.90;;;;;;5080859;28;20773;-78
2021/03/22 07:16:14;;;;;;;9.67;3.90;;;5.40;99.90;;;;;;5082086;28;20424;-78
2021/03/22 07:18:40;;;;;;;12.90;5.03;;;5.40;99.90;;;;;;5071371;28;20416;-81
2021/03/22 07:21:18;;;;;;;8.43;3.83;;;5.40;99.90;;;;;;5060766;28;20418;-80
2021/03/22 07:23:56;;;;;;;11.30;3.10;;;5.50;99.90;;;;;;5072464;28;20278;-80
2021/03/22 07:26:50;;;;;;;11.93;4.13;;;5.40;99.90;;;;;;5072289;28;20389;-80
2021/03/22 07:29:31;;;;;;;13.43;4.00;;;5.50;99.90;;;;;;5102046;28;20429;-79
2021/03/22 07:32:42;;;;;;;8.77;3.03;;;5.60;99.90;;;;;;5105818;28;20440;-81
2021/03/22 07:35:42;;;;;;;6.20;3.30;;;5.60;99.90;;;;;;5112264;28;20390;-81
2021/03/22 07:38:20;;;;;;;5.13;2.23;;;5.60;99.90;;;;;;5112166;28;20398;-81
2021/03/22 07:41:02;;;;;;;11.53;4.07;;;5.50;99.90;;;;;;5101958;28;20849;-80
2021/03/22 07:43:48;;;;;;;14.40;4.23;;;5.60;99.90;;;;;;5106966;28;20483;-81
2021/03/22 07:46:51;;;;;;;6.50;2.57;;;5.60;99.90;;;;;;5108536;28;20482;-81
2021/03/22 07:49:52;;;;;;;8.50;2.83;;;5.60;99.90;;;;;;5086617;28;20451;-80
2021/03/22 07:52:33;;;;;;;10.90;4.07;;;5.60;99.90;;;;;;5093735;28;20431;-80
2021/03/22 07:55:22;;;;;;;19.93;5.23;;;5.60;99.90;;;;;;5112530;28;20435;-81
2021/03/22 07:58:04;;;;;;;7.67;4.57;;;5.60;99.90;;;;;;5107418;28;20440;-81
2021/03/22 08:00:51;;;;;;;11.97;4.27;;;5.60;99.90;;;;;;5085054;28;20420;-80
2021/03/22 08:03:37;;;;;;;15.43;3.47;;;5.60;99.90;;;;;;5072293;28;20428;-81
2021/03/22 08:06:19;;;;;;;7.43;2.80;;;5.60;99.90;;;;;;5068748;28;20500;-81
2021/03/22 08:09:11;;;;;;;7.37;3.27;;;5.60;99.90;;;;;;5067898;28;20449;-79
2021/03/22 08:11:44;;;;;;;5.63;3.20;;;5.80;99.90;;;;;;5068815;28;20457;-80
2021/03/22 08:14:26;;;;;;;5.83;3.20;;;5.80;99.90;;;;;;5069821;28;20425;-80
2021/03/22 08:17:20;;;;;;;8.83;3.10;;;5.80;99.90;;;;;;5065901;28;20769;-81
2021/03/22 08:20:12;;;;;;;10.05;4.00;;;5.90;99.90;;;;;;5062274;28;20398;-80
2021/03/22 08:23:03;;;;;;;11.87;3.50;;;5.90;99.90;;;;;;5067159;28;20443;-79
2021/03/22 08:25:52;;;;;;;4.40;2.90;;;5.90;99.90;;;;;;5067035;28;20559;-81
2021/03/22 08:28:27;;;;;;;10.83;2.53;;;6.00;99.90;;;;;;5054287;28;20389;-79
2021/03/22 08:31:18;;;;;;;5.93;2.70;;;6.00;99.90;;;;;;5062819;28;20442;-81
2021/03/22 08:33:49;;;;;;;6.70;3.47;;;6.00;99.90;;;;;;5075691;28;20397;-81
2021/03/22 08:36:40;;;;;;;11.25;4.20;;;6.00;99.90;;;;;;5080539;28;20496;-80
2021/03/22 08:39:20;;;;;;;14.53;3.57;;;6.10;99.90;;;;;;5066637;28;20206;-80
2021/03/22 08:41:57;;;;;;;11.93;4.57;;;6.20;99.90;;;;;;5050169;28;20426;-81
2021/03/22 08:44:29;;;;;;;7.80;3.10;;;6.20;99.90;;;;;;5081903;28;20179;-80
2021/03/22 08:47:19;;;;;;;11.20;3.77;;;6.40;99.90;;;;;;5079917;28;20433;-81
2021/03/22 08:49:53;;;;;;;7.23;3.50;;;6.40;99.90;;;;;;5065615;28;20408;-82
2021/03/22 08:52:30;;;;;;;8.17;2.60;;;6.40;99.90;;;;;;5068509;28;20429;-81
2021/03/22 08:55:11;;;;;;;6.00;2.30;;;6.50;99.90;;;;;;5070196;28;20513;-81
2021/03/22 08:57:53;;;;;;;3.80;2.73;;;6.60;99.90;;;;;;5077626;28;20833;-80
2021/03/22 09:00:31;;;;;;;14.30;2.60;;;6.70;99.90;;;;;;5074256;28;20448;-81
2021/03/22 09:03:01;;;;;;;11.03;2.53;;;6.80;99.90;;;;;;5075532;28;20459;-81
2021/03/22 09:05:30;;;;;;;7.50;3.20;;;6.80;99.90;;;;;;5075511;28;20459;-80
2021/03/22 09:08:15;;;;;;;13.00;3.63;;;6.90;99.90;;;;;;5079781;28;20515;-80
2021/03/22 09:10:43;;;;;;;6.00;3.33;;;7.00;99.90;;;;;;5083971;28;20391;-80
2021/03/22 09:13:30;;;;;;;8.37;3.63;;;7.00;99.90;;;;;;5080664;28;20393;-81
2021/03/22 09:16:00;;;;;;;7.63;3.30;;;6.90;99.90;;;;;;5079365;28;20410;-81
2021/03/22 09:18:27;;;;;;;8.43;3.30;;;7.00;99.90;;;;;;5071822;28;20434;-80
2021/03/22 09:21:23;;;;;;;7.53;4.53;;;7.20;99.90;;;;;;5075587;28;20191;-80
2021/03/22 09:23:50;;;;;;;2.20;1.87;;;7.40;99.90;;;;;;5073137;28;20453;-81
2021/03/22 09:26:16;;;;;;;11.23;3.50;;;7.60;99.90;;;;;;5073506;28;20410;-81
2021/03/22 09:28:48;;;;;;;5.53;3.77;;;7.80;99.90;;;;;;5071824;28;20425;-81
2021/03/22 09:31:34;;;;;;;11.23;2.07;;;8.00;99.90;;;;;;5066168;28;20899;-81
2021/03/22 09:34:23;;;;;;;9.77;4.97;;;8.50;99.90;;;;;;5068385;28;20482;-81
2021/03/22 09:36:49;;;;;;;10.23;2.80;;;8.80;99.90;;;;;;5073710;28;20421;-81
2021/03/22 09:39:47;;;;;;;8.77;2.60;;;9.20;99.90;;;;;;5070191;28;20906;-81
2021/03/22 09:42:17;;;;;;;4.57;2.50;;;9.90;99.90;;;;;;5069883;28;20458;-80
2021/03/22 09:45:11;;;;;;;5.43;2.23;;;10.10;99.90;;;;;;5067413;28;20417;-81
2021/03/22 09:47:40;;;;;;;6.20;2.03;;;10.20;99.90;;;;;;5080626;28;20388;-81
2021/03/22 09:50:21;;;;;;;3.60;2.10;;;10.50;99.90;;;;;;5064966;28;20816;-81
2021/03/22 09:53:24;;;;;;;8.70;2.58;;;10.70;99.90;;;;;;5072895;28;20425;-81
2021/03/22 09:56:00;;;;;;;6.97;3.10;;;10.60;99.90;;;;;;5066648;28;20424;-80
2021/03/22 09:58:33;;;;;;;5.83;2.13;;;10.00;99.90;;;;;;5065736;28;20492;-81
2021/03/22 10:01:04;;;;;;;12.30;2.57;;;9.80;99.90;;;;;;5070463;28;20426;-80
2021/03/22 10:03:40;;;;;;;2.63;1.70;;;9.30;99.90;;;;;;5067779;28;20525;-80
2021/03/22 10:06:29;;;;;;;5.77;2.40;;;9.00;99.90;;;;;;5062048;28;20436;-81
2021/03/22 10:08:56;;;;;;;4.77;2.20;;;9.40;99.90;;;;;;5062860;28;20447;-80
2021/03/22 10:11:36;;;;;;;4.07;2.43;;;9.50;99.90;;;;;;5073642;28;20413;-81
2021/03/22 10:14:05;;;;;;;7.70;2.10;;;9.40;99.90;;;;;;5066659;28;20415;-81
2021/03/22 10:16:35;;;;;;;3.43;1.87;;;9.00;99.90;;;;;;5061744;28;20422;-81
2021/03/22 10:19:23;;;;;;;2.23;2.00;;;8.70;99.90;;;;;;5071394;28;20426;-80
2021/03/22 10:21:54;;;;;;;3.27;2.27;;;8.40;99.90;;;;;;5064613;28;20522;-81
2021/03/22 10:24:53;;;;;;;7.20;1.80;;;8.30;99.90;;;;;;5076922;28;20409;-80
2021/03/22 10:27:25;;;;;;;6.57;2.30;;;8.20;99.90;;;;;;5066937;28;20744;-80
2021/03/22 10:30:15;;;;;;;6.63;2.40;;;8.20;99.90;;;;;;5068977;28;20164;-80
2021/03/22 10:32:50;;;;;;;3.77;2.80;;;8.30;99.90;;;;;;5070214;28;20465;-80
2021/03/22 10:35:19;;;;;;;3.80;2.63;;;8.40;99.90;;;;;;5063813;28;20520;-81
2021/03/22 10:37:48;;;;;;;4.60;2.07;;;8.40;99.90;;;;;;5068817;28;20431;-81
2021/03/22 10:40:21;;;;;;;5.53;2.37;;;8.30;99.90;;;;;;5062529;28;20442;-81
2021/03/22 10:42:48;;;;;;;3.77;1.83;;;8.10;99.90;;;;;;5071524;28;20529;-81
2021/03/22 10:45:29;;;;;;;7.83;3.03;;;8.00;99.90;;;;;;5068885;28;20414;-81
2021/03/22 10:47:58;;;;;;;2.50;2.30;;;8.20;99.90;;;;;;5073112;28;20427;-80
2021/03/22 10:50:30;;;;;;;5.87;3.20;;;8.30;99.90;;;;;;5061727;28;20445;-80
2021/03/22 10:53:14;;;;;;;3.40;2.80;;;8.20;99.90;;;;;;5065229;28;20499;-80
2021/03/22 10:55:43;;;;;;;4.50;2.67;;;8.20;99.90;;;;;;5064262;28;20441;-80
2021/03/22 10:58:32;;;;;;;7.90;3.13;;;8.20;99.90;;;;;;5073418;28;20418;-78
2021/03/22 11:01:07;;;;;;;5.70;2.60;;;8.20;99.90;;;;;;5062038;28;20445;-80
2021/03/22 11:03:34;;;;;;;3.60;2.53;;;8.10;99.90;;;;;;5061346;28;20974;-81
2021/03/22 11:06:08;;;;;;;2.77;2.43;;;8.10;99.90;;;;;;5062898;28;20422;-81
2021/03/22 11:08:38;;;;;;;5.50;2.90;;;8.00;99.90;;;;;;5072620;28;20457;-81
2021/03/22 11:11:13;;;;;;;6.03;2.70;;;8.00;99.90;;;;;;5066346;28;20410;-81
2021/03/22 11:13:41;;;;;;;19.17;3.00;;;8.00;99.90;;;;;;5070614;28;20882;-77
2021/03/22 11:16:08;;;;;;;6.13;2.00;;;7.80;99.90;;;;;;5073942;28;20879;-78
2021/03/22 11:18:35;;;;;;;2.67;2.30;;;7.80;99.90;;;;;;5071804;28;20449;-80
2021/03/22 11:21:02;;;;;;;6.60;3.60;;;7.80;99.90;;;;;;5040338;28;20400;-81
2021/03/22 11:23:44;;;;;;;4.07;2.20;;;7.90;99.90;;;;;;5072783;28;20456;-81
2021/03/22 11:26:25;;;;;;;3.10;2.77;;;8.00;99.90;;;;;;5051744;28;20750;-81
2021/03/22 11:29:12;;;;;;;6.57;3.20;;;8.00;99.90;;;;;;5084714;28;20479;-80
2021/03/22 11:31:40;;;;;;;4.90;2.40;;;8.00;99.90;;;;;;5075826;28;20432;-80
2021/03/22 11:34:20;;;;;;;5.80;2.53;;;8.00;99.90;;;;;;5067597;28;20887;-81
2021/03/22 11:36:46;;;;;;;3.33;1.90;;;8.00;99.90;;;;;;5079929;28;20445;-80
2021/03/22 11:39:26;;;;;;;7.90;3.27;;;7.70;99.90;;;;;;5080113;28;20449;-81
2021/03/22 11:42:24;;;;;;;4.70;1.93;;;7.80;99.90;;;;;;5080415;28;20492;-80
2021/03/22 11:44:50;;;;;;;3.83;2.40;;;7.80;99.90;;;;;;5072508;28;20854;-80
2021/03/22 11:47:28;;;;;;;5.20;3.22;;;8.00;99.90;;;;;;5073495;28;20446;-79
2021/03/22 11:49:56;;;;;;;4.10;2.60;;;8.10;99.90;;;;;;5092329;28;20198;-79
2021/03/22 11:52:27;;;;;;;5.53;2.60;;;8.00;99.90;;;;;;5081624;28;20445;-80
2021/03/22 11:54:59;;;;;;;4.17;3.00;;;7.70;99.90;;;;;;5085288;28;20404;-77
2021/03/22 11:57:32;;;;;;;4.50;2.53;;;7.80;99.90;;;;;;5078882;28;20784;-80
2021/03/22 12:00:04;;;;;;;6.30;2.20;;;7.90;99.90;;;;;;5080520;28;20448;-78
2021/03/22 12:02:35;;;;;;;8.63;3.30;;;7.80;99.90;;;;;;5070271;28;20520;-81
2021/03/22 12:05:05;;;;;;;9.63;3.77;;;7.90;99.90;;;;;;5065319;28;20393;-82
2021/03/22 12:07:38;;;;;;;7.55;3.38;;;8.10;99.90;;;;;;5065394;28;20495;-81
2021/03/22 12:10:23;;;;;;;5.67;3.50;;;8.60;99.90;;;;;;5056292;28;20172;-81
2021/03/22 12:12:49;;;;;;;6.30;2.90;;;9.10;99.90;;;;;;5068564;28;20414;-81
2021/03/22 12:15:17;;;;;;;9.27;3.30;;;9.40;99.90;;;;;;5067707;28;20423;-80
2021/03/22 12:17:44;;;;;;;4.00;2.63;;;8.70;99.90;;;;;;5070564;28;20469;-80
2021/03/22 12:20:20;;;;;;;9.33;3.10;;;9.50;99.90;;;;;;5079317;28;20505;-81
2021/03/22 12:22:46;;;;;;;3.63;2.47;;;10.30;99.90;;;;;;5078236;28;20451;-79
2021/03/22 12:25:17;;;;;;;5.90;2.23;;;10.40;99.90;;;;;;5078664;28;20437;-81
2021/03/22 12:27:43;;;;;;;5.20;2.77;;;12.20;99.90;;;;;;5065573;28;20187;-81
2021/03/22 12:30:10;;;;;;;5.20;2.13;;;13.80;99.90;;;;;;5080375;28;20740;-81
2021/03/22 12:32:36;;;;;;;5.23;2.47;;;13.20;99.30;;;;;;5061137;28;20446;-81
2021/03/22 12:35:04;;;;;;;5.57;2.37;;;12.30;99.90;;;;;;5063636;28;20484;-81
2021/03/22 12:37:33;;;;;;;3.77;3.20;;;11.60;99.90;;;;;;5096647;28;20191;-81
2021/03/22 12:39:59;;;;;;;9.20;2.67;;;11.60;99.90;;;;;;5096429;28;20504;-80
2021/03/22 12:42:27;;;;;;;12.93;2.50;;;11.40;99.90;;;;;;5089187;28;20947;-79
2021/03/22 12:44:54;;;;;;;5.63;3.00;;;10.90;99.90;;;;;;5074484;28;20863;-79
2021/03/22 12:47:24;;;;;;;4.87;3.30;;;10.30;99.90;;;;;;5079480;28;20497;-79
2021/03/22 12:49:50;;;;;;;5.50;2.60;;;10.40;99.90;;;;;;5080904;28;20459;-79
2021/03/22 12:52:16;;;;;;;4.40;2.33;;;10.40;99.90;;;;;;5080051;28;20433;-80
2021/03/22 12:54:42;;;;;;;7.03;2.17;;;10.40;99.90;;;;;;5056112;28;20440;-80
2021/03/22 12:57:17;;;;;;;8.97;3.10;;;10.70;99.90;;;;;;5089258;28;20429;-79
2021/03/22 12:59:50;;;;;;;2.07;1.93;;;9.80;99.90;;;;;;5081656;28;20316;-80
2021/03/22 13:02:18;;;;;;;5.80;3.20;;;9.60;99.90;;;;;;5077296;28;20479;-78
2021/03/22 13:04:46;;;;;;;13.70;2.80;;;9.50;99.90;;;;;;5098809;28;20482;-80
2021/03/22 13:07:13;;;;;;;2.93;2.00;;;10.10;99.90;;;;;;5092924;28;20456;-80
2021/03/22 13:09:40;;;;;;;2.97;2.60;;;10.70;99.90;;;;;;5064622;28;20457;-81
2021/03/22 13:12:16;;;;;;;3.10;2.33;;;10.20;99.90;;;;;;5079735;28;20421;-81
2021/03/22 13:14:42;;;;;;;4.68;2.90;;;11.30;99.90;;;;;;5077255;28;20546;-81
2021/03/22 13:17:12;;;;;;;4.63;2.60;;;11.70;99.50;;;;;;5079803;28;20190;-81
2021/03/22 13:19:38;;;;;;;5.03;2.53;;;12.30;98.60;;;;;;5066126;28;20168;-80
2021/03/22 13:22:07;;;;;;;5.60;2.80;;;12.40;98.40;;;;;;5059483;28;20437;-80
2021/03/22 13:24:33;;;;;;;6.27;3.10;;;12.10;97.80;;;;;;5071278;28;20179;-80